Current Conditions
Mostly Cloudy
Conditions



Pressure
1015.92 (hPa) - 30 (inHG)
Visibility

9.7 (km) - 6.0 (miles)
Temperature
11  °C
Temperature
9  °C
Dewpoint
88  %
 Humidity
Wind Speed
8.0  m/s
18  mph
29  km/h
16  kts
Wind Direction
N
45°
E
90°
135°
S
180°
225°
W
270°
315°
 40°

North East
Airport Data
EKRN
Bornholm Airport
Metar :EKRN 210020Z AUTO 04016KT 9999 BKN130/// 11/09 Q1016
Tue 21st May 02:20 am
Raw Metar Info
Raw METAR is the most common format in the world for the transmission of observational weather data. It is highly standardized through the International Civil Aviation Organization (ICAO), which allows it to be understood throughout most of the world.
API Info
Data Provided by
https://www.checkwx.com/weather/EKRN

Aviation Weather providing METAR, TAF, AIRMET, SIGMET and OUTLOOK Weather Reports
© Info
CSS/SVG/PHP scripts were developed by weather34.com for use in the weather34 template © 2015-2024

Guide Info provided by Metar-Wikipedia